Time;durP1;ratioP1;P1;durP2;ratioP2;P2;SDS_P1;SDS_P2;PMS_P1;PMS_P2;Temp;Humidity;BMP_temperature;BMP_pressure;BME280_temperature;BME280_humidity;BME280_pressure;Samples;Min_cycle;Max_cycle;Signal;HPM_P1;HPM_P2
2021/09/19 00:01:02;;;;;;;18.87;16.87;;;12.50;99.90;;;;;;4830147;29;20992;-92
2021/09/19 00:03:31;;;;;;;17.13;15.53;;;12.40;99.90;;;;;;4831209;29;20198;-93
2021/09/19 00:05:57;;;;;;;19.37;17.00;;;12.40;99.90;;;;;;4828653;29;20838;-91
2021/09/19 00:08:29;;;;;;;19.87;17.77;;;12.30;99.90;;;;;;4823719;29;20487;-92
2021/09/19 00:10:55;;;;;;;19.57;17.43;;;12.30;99.90;;;;;;4843833;29;20502;-92
2021/09/19 00:13:29;;;;;;;19.10;17.13;;;12.30;99.90;;;;;;4838939;29;20451;-92
2021/09/19 00:15:55;;;;;;;19.23;17.27;;;12.30;99.90;;;;;;4830658;29;20451;-91
2021/09/19 00:18:24;;;;;;;20.07;18.07;;;12.30;99.90;;;;;;4829989;29;20450;-91
2021/09/19 00:20:50;;;;;;;19.20;17.13;;;12.30;99.90;;;;;;4827094;29;20466;-92
2021/09/19 00:23:16;;;;;;;19.93;17.93;;;12.30;99.90;;;;;;4826120;29;20836;-92
2021/09/19 00:25:42;;;;;;;20.10;18.00;;;12.30;99.90;;;;;;4829731;29;20325;-92
2021/09/19 00:28:08;;;;;;;19.80;17.70;;;12.30;99.90;;;;;;4829614;29;20463;-91
2021/09/19 00:30:34;;;;;;;19.60;17.70;;;12.30;99.90;;;;;;4827019;29;20451;-92
2021/09/19 00:33:00;;;;;;;17.00;15.20;;;12.40;99.90;;;;;;4831283;29;20192;-93
2021/09/19 00:35:27;;;;;;;19.97;16.43;;;12.40;99.90;;;;;;4824575;29;20466;-92
2021/09/19 00:37:54;;;;;;;18.90;17.00;;;12.40;99.90;;;;;;4826200;29;20312;-92
2021/09/19 00:40:26;;;;;;;17.73;15.83;;;12.40;99.90;;;;;;4831420;29;20463;-91
2021/09/19 00:42:52;;;;;;;17.80;15.90;;;12.40;99.90;;;;;;4825393;29;20443;-91
2021/09/19 00:45:23;;;;;;;17.20;15.57;;;12.40;99.90;;;;;;4831568;29;20928;-91
2021/09/19 00:47:49;;;;;;;18.60;16.73;;;12.30;99.90;;;;;;4844340;29;20499;-91
2021/09/19 00:50:19;;;;;;;21.30;17.17;;;12.30;99.90;;;;;;4833753;29;20493;-91
2021/09/19 00:52:49;;;;;;;18.70;16.70;;;12.30;99.90;;;;;;4830330;29;20444;-92
2021/09/19 00:55:16;;;;;;;18.03;16.23;;;12.30;99.90;;;;;;4834198;29;20882;-92
2021/09/19 00:57:54;;;;;;;17.57;15.77;;;12.20;99.90;;;;;;4832414;29;20816;-92
2021/09/19 01:00:23;;;;;;;17.07;15.37;;;12.20;99.90;;;;;;4829713;29;20448;-91
2021/09/19 01:02:53;;;;;;;17.23;15.50;;;12.20;99.90;;;;;;4827380;29;20531;-91
2021/09/19 01:05:22;;;;;;;16.83;15.03;;;12.20;99.90;;;;;;4828616;29;20487;-90
2021/09/19 01:07:49;;;;;;;16.33;14.73;;;12.20;99.90;;;;;;4829706;29;20873;-90
2021/09/19 01:10:21;;;;;;;17.33;15.33;;;12.20;99.90;;;;;;4832024;29;20454;-93
2021/09/19 01:12:51;;;;;;;17.07;15.37;;;12.20;99.90;;;;;;4831746;29;21861;-93
2021/09/19 01:15:21;;;;;;;16.93;15.00;;;12.20;99.90;;;;;;4833989;29;20483;-92
2021/09/19 01:17:53;;;;;;;16.20;14.50;;;12.10;99.90;;;;;;4846709;29;21559;-94
2021/09/19 01:20:38;;;;;;;17.77;15.97;;;12.10;99.90;;;;;;4852137;29;20591;-94
2021/09/19 01:23:09;;;;;;;17.63;15.73;;;12.00;99.90;;;;;;4833461;29;20511;-94
2021/09/19 01:25:36;;;;;;;17.00;15.30;;;12.00;99.90;;;;;;4833991;29;20482;-94
2021/09/19 01:28:17;;;;;;;17.13;14.80;;;11.90;99.90;;;;;;4834128;29;20447;-93
2021/09/19 01:30:43;;;;;;;18.10;16.30;;;11.90;99.90;;;;;;4833649;29;20454;-93
2021/09/19 01:33:09;;;;;;;16.60;14.90;;;11.90;99.90;;;;;;4836830;29;21034;-93
2021/09/19 01:35:35;;;;;;;19.23;15.40;;;11.90;99.90;;;;;;4836271;29;20542;-94
2021/09/19 01:38:01;;;;;;;17.23;15.53;;;11.90;99.90;;;;;;4832549;29;20440;-93
2021/09/19 01:40:28;;;;;;;17.10;15.30;;;11.90;99.90;;;;;;4845205;29;20455;-93
2021/09/19 01:42:55;;;;;;;16.70;15.00;;;11.90;99.90;;;;;;4832014;29;20455;-93
2021/09/19 01:45:21;;;;;;;16.83;15.03;;;11.90;99.90;;;;;;4832219;29;20518;-93
2021/09/19 01:47:52;;;;;;;16.43;14.60;;;11.90;99.90;;;;;;4836759;29;20467;-91
2021/09/19 01:50:20;;;;;;;15.83;14.20;;;11.90;99.90;;;;;;4835303;29;20533;-92
2021/09/19 01:52:50;;;;;;;15.37;13.87;;;11.80;99.90;;;;;;4830446;29;20453;-91
2021/09/19 01:55:16;;;;;;;16.37;14.67;;;11.80;99.90;;;;;;4835505;29;20504;-92
2021/09/19 01:57:45;;;;;;;16.37;14.87;;;11.70;99.90;;;;;;4830135;29;20505;-92
2021/09/19 02:00:16;;;;;;;18.40;15.20;;;11.70;99.90;;;;;;4827164;29;21042;-91
2021/09/19 02:02:46;;;;;;;18.30;16.40;;;11.70;99.90;;;;;;4828915;29;20459;-91
2021/09/19 02:05:12;;;;;;;17.37;15.47;;;11.60;99.90;;;;;;4829723;29;20580;-92
2021/09/19 02:07:38;;;;;;;16.80;15.10;;;11.60;99.90;;;;;;4833822;29;20436;-92
2021/09/19 02:10:13;;;;;;;15.70;14.10;;;11.50;99.90;;;;;;4837385;29;20452;-92
2021/09/19 02:12:41;;;;;;;16.57;14.83;;;11.50;99.90;;;;;;4831592;29;20836;-92
2021/09/19 02:15:12;;;;;;;15.00;13.50;;;11.50;99.90;;;;;;4831646;29;20491;-92
2021/09/19 02:17:38;;;;;;;15.33;13.73;;;11.50;99.90;;;;;;4830960;29;20447;-92
2021/09/19 02:20:07;;;;;;;14.57;13.17;;;11.60;99.90;;;;;;4832741;29;20460;-93
2021/09/19 02:22:33;;;;;;;14.90;12.27;;;11.60;99.90;;;;;;4829449;29;20487;-94
2021/09/19 02:27:50;;;;;;;15.80;14.20;;;11.60;99.90;;;;;;4847915;29;20618;-93
2021/09/19 02:30:42;;;;;;;15.90;14.20;;;11.40;99.90;;;;;;4848306;29;21010;-93
2021/09/19 02:33:08;;;;;;;16.13;14.53;;;11.40;99.90;;;;;;4848012;29;21221;-93
2021/09/19 02:35:35;;;;;;;16.00;14.30;;;11.30;99.90;;;;;;4832004;29;20464;-93
2021/09/19 02:38:01;;;;;;;16.13;14.47;;;11.20;99.90;;;;;;4831671;29;20456;-93
2021/09/19 02:40:30;;;;;;;18.50;15.07;;;11.20;99.90;;;;;;4833441;29;20458;-94
2021/09/19 02:42:56;;;;;;;16.57;14.97;;;11.10;99.90;;;;;;4827182;29;20490;-93
2021/09/19 02:45:25;;;;;;;16.43;13.53;;;11.00;99.90;;;;;;4835155;29;20495;-93
2021/09/19 02:47:55;;;;;;;17.40;15.30;;;11.00;99.90;;;;;;4832643;29;21069;-91
2021/09/19 02:50:23;;;;;;;17.13;15.10;;;10.90;99.90;;;;;;4831354;29;20456;-91
2021/09/19 02:52:49;;;;;;;16.43;14.73;;;10.80;99.90;;;;;;4834051;29;20897;-91
2021/09/19 02:55:16;;;;;;;16.23;14.17;;;10.80;99.90;;;;;;4834751;29;20577;-92
2021/09/19 02:57:42;;;;;;;15.37;13.73;;;10.80;99.90;;;;;;4829060;29;20452;-91
2021/09/19 03:00:15;;;;;;;14.67;13.07;;;11.00;99.90;;;;;;4843122;29;20849;-91
2021/09/19 03:02:42;;;;;;;14.10;12.57;;;11.10;99.90;;;;;;4847674;29;20804;-91
2021/09/19 03:05:09;;;;;;;14.37;12.93;;;11.10;99.90;;;;;;4845458;29;20482;-91
2021/09/19 03:07:38;;;;;;;14.77;13.27;;;11.10;99.90;;;;;;4829995;29;21174;-92
2021/09/19 03:10:08;;;;;;;14.03;11.50;;;11.10;99.90;;;;;;4830412;29;20984;-92
2021/09/19 03:12:40;;;;;;;15.00;13.50;;;11.10;99.90;;;;;;4832505;29;20459;-91
2021/09/19 03:15:10;;;;;;;15.47;11.60;;;11.10;99.90;;;;;;4833171;29;20470;-90
2021/09/19 03:17:38;;;;;;;14.67;13.17;;;11.10;99.90;;;;;;4833424;29;20462;-91
2021/09/19 03:20:06;;;;;;;13.17;11.77;;;11.00;99.90;;;;;;4836835;29;20787;-91
2021/09/19 03:22:33;;;;;;;13.00;11.70;;;11.10;99.90;;;;;;4830008;29;20520;-92
2021/09/19 03:25:00;;;;;;;12.67;11.37;;;11.10;99.90;;;;;;4829305;29;20903;-92
2021/09/19 03:27:30;;;;;;;14.20;12.70;;;11.10;99.90;;;;;;4830154;29;21594;-93
2021/09/19 03:29:59;;;;;;;12.20;10.90;;;11.10;99.90;;;;;;4830414;29;20524;-92
2021/09/19 03:32:27;;;;;;;13.83;12.43;;;11.00;99.90;;;;;;4832865;29;20455;-92
2021/09/19 03:35:03;;;;;;;15.30;13.80;;;11.00;99.90;;;;;;4827631;29;20474;-93
2021/09/19 03:37:32;;;;;;;13.47;12.07;;;10.90;99.90;;;;;;4833870;29;20802;-93
2021/09/19 03:40:06;;;;;;;12.80;11.50;;;10.90;99.90;;;;;;4846716;29;20554;-92
2021/09/19 03:42:34;;;;;;;14.27;11.90;;;10.90;99.90;;;;;;4828761;29;20457;-93
2021/09/19 03:45:05;;;;;;;12.83;11.43;;;10.90;99.90;;;;;;4829321;29;20522;-93
2021/09/19 03:47:31;;;;;;;12.87;11.57;;;11.00;99.90;;;;;;4829469;29;20463;-93
2021/09/19 03:49:59;;;;;;;12.50;11.17;;;11.00;99.90;;;;;;4831006;29;20454;-92
2021/09/19 03:52:25;;;;;;;12.20;10.90;;;11.00;99.90;;;;;;4830596;29;20626;-92
2021/09/19 03:55:04;;;;;;;13.50;12.13;;;11.00;99.90;;;;;;4832223;29;21025;-92
2021/09/19 03:57:29;;;;;;;12.40;11.20;;;10.90;99.90;;;;;;4829342;29;20481;-91
2021/09/19 03:59:58;;;;;;;13.17;11.87;;;10.90;99.90;;;;;;4829663;29;20471;-91
2021/09/19 04:02:27;;;;;;;12.93;11.57;;;10.80;99.90;;;;;;4828724;29;20559;-91
2021/09/19 04:04:55;;;;;;;13.03;11.70;;;10.80;99.90;;;;;;4830452;29;20486;-91
2021/09/19 04:07:21;;;;;;;12.53;11.37;;;10.70;99.90;;;;;;4826337;29;20451;-91
2021/09/19 04:09:47;;;;;;;13.67;12.27;;;10.70;99.90;;;;;;4831323;29;20456;-90
2021/09/19 04:12:13;;;;;;;19.93;12.53;;;10.60;99.90;;;;;;4831153;29;20808;-91
2021/09/19 04:14:39;;;;;;;13.03;11.73;;;10.60;99.90;;;;;;4829299;29;20201;-92
2021/09/19 04:17:08;;;;;;;12.40;11.20;;;10.60;99.90;;;;;;4844917;29;20262;-92
2021/09/19 04:19:33;;;;;;;12.50;11.30;;;10.60;99.90;;;;;;4810834;29;20550;-92
2021/09/19 04:21:59;;;;;;;12.07;10.87;;;10.70;99.90;;;;;;4827369;29;20439;-93
2021/09/19 04:24:28;;;;;;;13.37;12.03;;;10.80;99.90;;;;;;4833202;29;20236;-93
2021/09/19 04:26:55;;;;;;;14.03;12.63;;;10.70;99.90;;;;;;4847653;29;20561;-92
2021/09/19 04:29:23;;;;;;;12.67;11.47;;;10.70;99.90;;;;;;4837063;29;20447;-92
2021/09/19 04:31:49;;;;;;;13.27;10.40;;;10.70;99.90;;;;;;4836215;29;20470;-93
2021/09/19 04:34:15;;;;;;;11.13;9.93;;;10.80;99.90;;;;;;4836795;29;20450;-92
2021/09/19 04:36:41;;;;;;;10.80;9.70;;;10.80;99.90;;;;;;4833501;29;20451;-93
2021/09/19 04:39:10;;;;;;;12.03;10.83;;;10.80;99.90;;;;;;4834616;29;20439;-93
2021/09/19 04:41:39;;;;;;;11.23;10.23;;;10.80;99.90;;;;;;4834385;29;20205;-94
2021/09/19 04:44:08;;;;;;;11.07;9.97;;;10.70;99.90;;;;;;4832903;29;20524;-92
2021/09/19 04:46:45;;;;;;;13.87;10.80;;;10.70;99.90;;;;;;4834341;29;20459;-92
2021/09/19 04:49:17;;;;;;;13.60;10.20;;;10.70;99.90;;;;;;4841403;29;20443;-93
2021/09/19 04:51:43;;;;;;;12.47;11.27;;;10.60;99.90;;;;;;4835579;29;20455;-94
2021/09/19 04:54:09;;;;;;;13.10;11.90;;;10.60;99.90;;;;;;4831400;29;20504;-93
2021/09/19 04:56:49;;;;;;;13.23;11.50;;;10.50;99.90;;;;;;4832568;29;20286;-93
2021/09/19 04:59:18;;;;;;;12.97;11.67;;;10.40;99.90;;;;;;4833958;29;20542;-94
2021/09/19 05:01:44;;;;;;;17.50;12.00;;;10.40;99.90;;;;;;4833173;29;20965;-92
2021/09/19 05:04:10;;;;;;;13.40;12.10;;;10.30;99.90;;;;;;4834568;29;20458;-93
2021/09/19 05:06:38;;;;;;;12.43;11.13;;;10.40;99.90;;;;;;4832581;29;20206;-94
2021/09/19 05:09:04;;;;;;;12.93;11.40;;;10.40;99.90;;;;;;4847484;29;20508;-93
2021/09/19 05:11:34;;;;;;;10.67;9.67;;;10.50;99.90;;;;;;4833951;29;20461;-93
2021/09/19 05:14:00;;;;;;;11.70;10.50;;;10.50;99.90;;;;;;4831858;29;20346;-92
2021/09/19 05:16:26;;;;;;;10.70;9.67;;;10.50;99.90;;;;;;4838315;29;20452;-93
2021/09/19 05:18:54;;;;;;;12.00;10.43;;;10.60;99.90;;;;;;4829148;29;20448;-93
2021/09/19 05:21:23;;;;;;;11.60;10.50;;;10.60;99.90;;;;;;4831452;29;20562;-92
2021/09/19 05:23:55;;;;;;;13.60;10.70;;;10.60;99.90;;;;;;4831446;29;20825;-92
2021/09/19 05:26:21;;;;;;;10.87;9.80;;;10.70;99.90;;;;;;4831664;29;20494;-92
2021/09/19 05:28:47;;;;;;;11.63;10.50;;;10.90;99.90;;;;;;4831385;29;20808;-92
2021/09/19 05:31:13;;;;;;;11.30;10.30;;;10.90;99.90;;;;;;4833650;29;20194;-93
2021/09/19 05:33:41;;;;;;;10.87;9.87;;;10.80;99.90;;;;;;4832995;29;20677;-92
2021/09/19 05:36:08;;;;;;;10.80;9.80;;;10.80;99.90;;;;;;4831960;29;20887;-91
2021/09/19 05:38:35;;;;;;;10.57;9.67;;;10.80;99.90;;;;;;4825556;29;20446;-92
2021/09/19 05:41:01;;;;;;;10.67;9.60;;;10.90;99.90;;;;;;4831329;29;20510;-92
2021/09/19 05:43:27;;;;;;;10.13;9.13;;;11.00;99.90;;;;;;4820658;29;20464;-94
2021/09/19 05:45:53;;;;;;;14.30;11.00;;;11.10;99.90;;;;;;4827236;29;20230;-93
2021/09/19 05:48:21;;;;;;;10.30;9.40;;;11.00;99.90;;;;;;4827597;29;20447;-94
2021/09/19 05:50:52;;;;;;;10.50;9.50;;;10.90;99.90;;;;;;4823673;29;20206;-92
2021/09/19 05:53:24;;;;;;;11.47;10.27;;;10.90;99.90;;;;;;4827408;29;20462;-92
2021/09/19 05:55:59;;;;;;;10.70;9.63;;;10.80;99.90;;;;;;4827975;29;20487;-93
2021/09/19 05:58:31;;;;;;;11.13;10.03;;;10.80;99.90;;;;;;4827505;29;20454;-95
2021/09/19 06:00:57;;;;;;;10.23;9.10;;;10.80;99.90;;;;;;4834221;29;20475;-95
2021/09/19 06:03:26;;;;;;;11.00;9.70;;;10.90;99.90;;;;;;4828258;29;21037;-93
2021/09/19 06:05:56;;;;;;;9.90;9.00;;;11.00;99.90;;;;;;4826933;29;20527;-92
2021/09/19 06:08:22;;;;;;;10.30;9.30;;;11.00;99.90;;;;;;4828923;29;20812;-94
2021/09/19 06:10:51;;;;;;;10.90;9.80;;;11.10;99.90;;;;;;4826647;29;20459;-94
2021/09/19 06:13:19;;;;;;;11.07;9.97;;;11.30;99.90;;;;;;4827615;29;20481;-96
2021/09/19 06:15:48;;;;;;;10.40;9.40;;;11.40;99.90;;;;;;4828890;29;20446;-94
2021/09/19 06:18:14;;;;;;;15.07;10.90;;;11.50;99.90;;;;;;4835193;29;20532;-94
2021/09/19 06:20:40;;;;;;;12.97;11.67;;;11.60;99.90;;;;;;4837996;29;20478;-96
2021/09/19 06:23:16;;;;;;;11.97;10.77;;;11.70;99.90;;;;;;4832219;29;20289;-93
2021/09/19 06:25:48;;;;;;;10.90;9.80;;;11.90;99.90;;;;;;4822594;29;20487;-94
2021/09/19 06:28:14;;;;;;;11.90;10.80;;;12.00;99.90;;;;;;4825423;29;20458;-94
2021/09/19 06:30:49;;;;;;;12.30;11.00;;;12.20;99.90;;;;;;4827274;29;21119;-93
2021/09/19 06:33:16;;;;;;;12.57;11.27;;;12.30;99.90;;;;;;4824068;29;20257;-94
2021/09/19 06:35:42;;;;;;;11.53;10.33;;;12.40;99.90;;;;;;4826547;29;20447;-93
2021/09/19 06:38:10;;;;;;;11.40;10.30;;;12.50;99.90;;;;;;4824522;29;20482;-93
2021/09/19 06:40:48;;;;;;;11.10;10.00;;;12.60;99.90;;;;;;4829093;29;20463;-93
2021/09/19 06:43:17;;;;;;;10.27;9.27;;;12.70;99.90;;;;;;4827040;29;21097;-94
2021/09/19 06:45:43;;;;;;;10.23;9.33;;;12.70;99.90;;;;;;4832445;29;20865;-93
2021/09/19 06:48:09;;;;;;;11.70;10.60;;;12.90;99.90;;;;;;4849007;29;20934;-94
2021/09/19 06:50:38;;;;;;;10.03;9.13;;;13.00;99.90;;;;;;4828402;29;20640;-94
2021/09/19 06:53:05;;;;;;;9.40;8.60;;;13.10;99.90;;;;;;4828993;29;20359;-93
2021/09/19 06:55:30;;;;;;;10.97;9.83;;;13.20;99.90;;;;;;4828072;29;20551;-93
2021/09/19 06:57:57;;;;;;;10.33;9.33;;;13.20;99.90;;;;;;4832645;29;20489;-94
2021/09/19 07:00:23;;;;;;;10.40;9.40;;;13.30;99.90;;;;;;4827345;29;20202;-93
2021/09/19 07:02:49;;;;;;;9.50;8.50;;;13.50;99.90;;;;;;4841280;29;20482;-93
2021/09/19 07:05:15;;;;;;;9.50;8.67;;;13.50;99.90;;;;;;4840391;29;20561;-93
2021/09/19 07:07:44;;;;;;;9.47;8.47;;;13.50;99.90;;;;;;4827644;29;20496;-93
2021/09/19 07:10:14;;;;;;;9.63;8.63;;;13.60;99.90;;;;;;4828741;29;20455;-95
2021/09/19 07:12:55;;;;;;;9.30;8.40;;;13.70;99.90;;;;;;4828903;29;20938;-94
2021/09/19 07:15:24;;;;;;;8.07;7.33;;;13.90;99.90;;;;;;4824286;29;20461;-95
2021/09/19 07:17:50;;;;;;;8.80;7.90;;;14.00;99.90;;;;;;4829401;29;20504;-95
2021/09/19 07:20:37;;;;;;;8.97;8.17;;;14.00;99.90;;;;;;4840747;29;20443;-90
2021/09/19 07:23:03;;;;;;;8.87;8.07;;;14.20;99.90;;;;;;4827640;29;20467;-93
2021/09/19 07:25:30;;;;;;;9.80;8.90;;;14.40;99.90;;;;;;4827120;29;20587;-92
2021/09/19 07:27:56;;;;;;;9.53;8.63;;;14.30;99.90;;;;;;4824796;29;20512;-93
2021/09/19 07:30:22;;;;;;;9.17;8.37;;;14.30;99.90;;;;;;4830025;29;20878;-93
2021/09/19 07:32:48;;;;;;;8.00;7.20;;;14.40;99.90;;;;;;4830992;29;20491;-92
2021/09/19 07:35:17;;;;;;;11.00;9.13;;;14.60;99.90;;;;;;4826316;29;21005;-91
2021/09/19 07:37:45;;;;;;;8.93;8.10;;;14.70;99.90;;;;;;4840618;29;20850;-93
2021/09/19 07:40:12;;;;;;;9.03;8.20;;;14.80;99.90;;;;;;4831686;29;20458;-93
2021/09/19 07:42:38;;;;;;;7.97;7.27;;;14.70;99.90;;;;;;4827254;29;20440;-90
2021/09/19 07:45:08;;;;;;;9.20;8.30;;;14.80;99.90;;;;;;4822760;29;20555;-92
2021/09/19 07:47:36;;;;;;;7.80;7.20;;;15.00;99.90;;;;;;4828706;29;20553;-93
2021/09/19 07:50:11;;;;;;;8.43;7.70;;;15.20;99.90;;;;;;4829131;29;20532;-90
2021/09/19 07:52:45;;;;;;;8.73;7.93;;;15.40;99.90;;;;;;4826959;29;20538;-92
2021/09/19 07:55:14;;;;;;;8.10;7.40;;;15.20;99.90;;;;;;4823765;29;20954;-92
2021/09/19 07:57:41;;;;;;;7.83;7.23;;;15.50;99.90;;;;;;4831759;29;20945;-90
2021/09/19 08:00:29;;;;;;;7.60;6.90;;;15.80;99.90;;;;;;4833786;29;20539;-93
2021/09/19 08:02:58;;;;;;;7.57;6.80;;;15.90;99.90;;;;;;4828683;29;20443;-92
2021/09/19 08:05:30;;;;;;;7.30;6.70;;;16.10;99.90;;;;;;4829616;29;21163;-91
2021/09/19 08:07:56;;;;;;;20.80;18.90;;;16.20;99.90;;;;;;4828269;29;20447;-92
2021/09/19 08:10:39;;;;;;;24.67;22.60;;;16.30;99.90;;;;;;4831339;29;20466;-92
2021/09/19 08:13:06;;;;;;;7.50;6.90;;;16.20;99.90;;;;;;4895721;24;20522;-94
2021/09/19 08:15:35;;;;;;;7.07;6.47;;;16.40;99.90;;;;;;4834338;29;20463;-95
2021/09/19 08:18:01;;;;;;;7.77;6.87;;;16.90;99.90;;;;;;4829197;29;20469;-96
2021/09/19 08:20:27;;;;;;;7.33;6.50;;;17.10;99.90;;;;;;4826986;29;20460;-95
2021/09/19 08:22:53;;;;;;;7.40;6.70;;;16.70;99.90;;;;;;4814000;29;20976;-95
2021/09/19 08:25:19;;;;;;;6.70;6.20;;;16.70;99.90;;;;;;4813077;29;20519;-94
2021/09/19 08:27:48;;;;;;;6.77;6.03;;;17.00;99.90;;;;;;4819756;29;20729;-95
2021/09/19 08:30:16;;;;;;;7.77;7.17;;;17.00;99.90;;;;;;4811128;29;20211;-94
2021/09/19 08:32:50;;;;;;;7.20;6.53;;;16.80;99.90;;;;;;4812940;29;20444;-94
2021/09/19 08:35:18;;;;;;;6.30;5.90;;;16.70;99.90;;;;;;4816476;29;20448;-92
2021/09/19 08:37:47;;;;;;;5.93;5.43;;;16.80;99.90;;;;;;4816583;29;20556;-95
2021/09/19 08:40:16;;;;;;;6.40;5.90;;;17.30;99.90;;;;;;4820464;29;20560;-94
2021/09/19 08:42:42;;;;;;;6.30;5.70;;;17.50;99.90;;;;;;4815968;29;20436;-93
2021/09/19 08:45:12;;;;;;;6.00;5.50;;;17.70;99.90;;;;;;4815522;29;20572;-94
2021/09/19 08:47:38;;;;;;;6.27;5.67;;;18.00;99.90;;;;;;4820750;29;20455;-96
2021/09/19 08:50:06;;;;;;;6.20;5.70;;;18.00;99.90;;;;;;4817017;29;20467;-95
2021/09/19 08:52:40;;;;;;;6.37;5.87;;;17.90;99.90;;;;;;4834390;29;20465;-95
2021/09/19 08:55:35;;;;;;;6.63;6.07;;;18.10;99.90;;;;;;4810085;29;20460;-90
2021/09/19 08:58:01;;;;;;;6.27;5.77;;;17.80;99.90;;;;;;4826183;29;20487;-93
2021/09/19 09:00:44;;;;;;;6.37;5.87;;;17.40;99.90;;;;;;4823290;29;20457;-95
2021/09/19 09:03:25;;;;;;;5.57;5.17;;;17.40;99.90;;;;;;4825783;29;20200;-95
2021/09/19 09:05:56;;;;;;;6.80;6.20;;;17.50;99.90;;;;;;4833172;29;20846;-93
2021/09/19 09:08:32;;;;;;;6.50;6.10;;;18.00;99.90;;;;;;4820440;29;20455;-92
2021/09/19 09:11:07;;;;;;;5.70;5.30;;;17.90;99.90;;;;;;4816446;29;20506;-93
2021/09/19 09:13:37;;;;;;;5.87;5.33;;;17.70;99.90;;;;;;4812846;29;20813;-93
2021/09/19 09:16:19;;;;;;;7.73;5.87;;;17.90;99.90;;;;;;4813072;29;20837;-94
2021/09/19 09:18:53;;;;;;;6.23;5.73;;;18.40;99.90;;;;;;4826115;29;20542;-93
2021/09/19 09:21:25;;;;;;;6.70;6.10;;;18.60;99.90;;;;;;4828313;29;20558;-94
2021/09/19 09:23:53;;;;;;;5.87;5.40;;;18.40;99.90;;;;;;4814669;29;20467;-93
2021/09/19 09:26:23;;;;;;;5.87;5.47;;;18.20;99.90;;;;;;4814290;29;20505;-96
2021/09/19 09:29:07;;;;;;;6.67;6.17;;;18.60;99.90;;;;;;4835981;29;20443;-94
2021/09/19 09:31:47;;;;;;;6.57;6.00;;;18.50;99.90;;;;;;4811276;29;20472;-94
2021/09/19 09:34:25;;;;;;;7.43;6.57;;;18.70;99.90;;;;;;4814975;29;20543;-93
2021/09/19 09:36:54;;;;;;;6.83;6.33;;;19.30;99.90;;;;;;4828261;29;20546;-95
2021/09/19 09:39:42;;;;;;;6.60;5.73;;;19.70;99.90;;;;;;4814272;29;20482;-94
2021/09/19 09:42:36;;;;;;;5.90;5.40;;;19.90;99.90;;;;;;4819645;29;20559;-91
2021/09/19 09:45:03;;;;;;;6.57;6.07;;;19.90;99.90;;;;;;4813004;29;20588;-93
2021/09/19 09:47:29;;;;;;;7.30;6.70;;;19.60;99.90;;;;;;4811003;29;20516;-94
2021/09/19 09:50:00;;;;;;;7.30;6.60;;;19.70;99.90;;;;;;4812865;29;20841;-92
2021/09/19 09:52:27;;;;;;;7.60;7.00;;;19.80;99.90;;;;;;4831948;29;20491;-92
2021/09/19 09:55:05;;;;;;;9.30;7.57;;;19.90;99.90;;;;;;4815066;29;20468;-93
2021/09/19 09:57:34;;;;;;;7.83;7.20;;;19.80;99.90;;;;;;4829720;29;20474;-92
2021/09/19 10:00:13;;;;;;;7.90;7.20;;;20.20;99.90;;;;;;4809503;29;20465;-94
2021/09/19 10:02:42;;;;;;;9.07;8.27;;;20.60;99.90;;;;;;4811259;29;20468;-92
2021/09/19 10:05:12;;;;;;;9.03;7.53;;;20.70;99.80;;;;;;4814803;29;20944;-94
2021/09/19 10:07:42;;;;;;;6.73;6.23;;;20.30;99.90;;;;;;4815200;29;20460;-93
2021/09/19 10:10:11;;;;;;;8.97;8.23;;;20.70;99.90;;;;;;4811251;29;20447;-92
2021/09/19 10:12:40;;;;;;;7.80;7.10;;;20.60;99.20;;;;;;4814752;29;20452;-95
2021/09/19 10:15:08;;;;;;;9.30;8.60;;;20.30;99.90;;;;;;4821749;29;20483;-95
2021/09/19 10:17:35;;;;;;;8.63;7.93;;;19.90;99.90;;;;;;4832724;29;20639;-94
2021/09/19 10:20:09;;;;;;;8.93;8.13;;;19.40;99.90;;;;;;4813498;29;20459;-96
2021/09/19 10:22:48;;;;;;;8.40;7.53;;;19.60;99.90;;;;;;4810395;29;20452;-94
2021/09/19 10:25:37;;;;;;;7.70;7.07;;;19.70;99.90;;;;;;4827539;29;20763;-95
2021/09/19 10:28:21;;;;;;;9.17;7.53;;;20.20;99.90;;;;;;4817293;29;20898;-94
2021/09/19 10:31:08;;;;;;;7.93;7.23;;;20.80;99.90;;;;;;4814514;29;20497;-94
2021/09/19 10:33:42;;;;;;;8.50;7.80;;;21.30;99.90;;;;;;4808324;29;20468;-93
2021/09/19 10:36:26;;;;;;;6.93;6.30;;;20.80;98.70;;;;;;4816720;29;20536;-91
2021/09/19 10:39:11;;;;;;;8.20;7.47;;;20.80;99.60;;;;;;4814176;29;20528;-93
2021/09/19 10:41:57;;;;;;;8.40;7.70;;;21.30;99.10;;;;;;4811820;29;21920;-92
2021/09/19 10:44:34;;;;;;;10.37;6.90;;;21.50;97.80;;;;;;4811008;29;20448;-92
2021/09/19 10:47:12;;;;;;;7.43;6.93;;;21.50;98.00;;;;;;4808459;29;20504;-92
2021/09/19 10:49:40;;;;;;;7.67;6.97;;;21.40;98.10;;;;;;4836571;29;20483;-93
2021/09/19 10:52:10;;;;;;;8.30;7.50;;;22.00;97.80;;;;;;4827025;29;20484;-93
2021/09/19 10:54:42;;;;;;;7.87;7.07;;;21.60;97.30;;;;;;4821758;29;20933;-92
2021/09/19 10:57:37;;;;;;;8.27;7.40;;;21.30;97.40;;;;;;4823216;29;20481;-92
2021/09/19 11:00:12;;;;;;;7.10;6.30;;;20.90;98.40;;;;;;4796148;29;20464;-94
2021/09/19 11:02:40;;;;;;;9.00;8.10;;;21.40;98.40;;;;;;4812182;29;20543;-93
2021/09/19 11:05:27;;;;;;;8.07;7.47;;;22.00;97.30;;;;;;4808096;29;20570;-91
2021/09/19 11:08:10;;;;;;;7.07;6.57;;;22.10;96.90;;;;;;4826838;29;20555;-92
2021/09/19 11:10:45;;;;;;;7.10;6.50;;;22.00;97.50;;;;;;4805934;29;20555;-92
2021/09/19 11:13:47;;;;;;;8.23;7.63;;;22.30;96.80;;;;;;4811595;29;20467;-92
2021/09/19 11:16:35;;;;;;;7.37;6.77;;;22.70;96.90;;;;;;4824355;29;20455;-94
2021/09/19 11:19:04;;;;;;;6.90;6.27;;;23.00;95.60;;;;;;4813865;29;21057;-93
2021/09/19 11:21:38;;;;;;;7.87;7.27;;;22.90;95.60;;;;;;4810560;29;20465;-92
2021/09/19 11:24:07;;;;;;;6.87;6.33;;;22.20;94.90;;;;;;4806246;29;20492;-92
2021/09/19 11:26:56;;;;;;;7.83;6.93;;;21.80;97.20;;;;;;4814548;29;20492;-92
2021/09/19 11:29:24;;;;;;;6.97;6.47;;;21.80;96.10;;;;;;4823748;29;20565;-94
2021/09/19 11:31:53;;;;;;;7.60;7.00;;;22.10;97.10;;;;;;4812969;29;20534;-92
2021/09/19 11:34:22;;;;;;;7.37;6.87;;;22.10;96.30;;;;;;4808772;29;20796;-92
2021/09/19 11:37:11;;;;;;;6.10;5.60;;;22.30;95.80;;;;;;4808844;29;20520;-93
2021/09/19 11:39:39;;;;;;;5.97;5.53;;;22.00;96.10;;;;;;4807033;29;20441;-92
2021/09/19 11:42:12;;;;;;;6.53;5.60;;;21.70;97.20;;;;;;4823450;29;20819;-91
2021/09/19 11:44:52;;;;;;;6.97;6.37;;;21.40;97.00;;;;;;4807156;29;20488;-93
2021/09/19 11:47:22;;;;;;;6.83;6.23;;;21.80;96.70;;;;;;4813041;29;20463;-90
2021/09/19 11:49:50;;;;;;;7.30;6.77;;;22.50;96.60;;;;;;4824424;29;20823;-89
2021/09/19 11:52:16;;;;;;;7.13;6.43;;;22.50;94.20;;;;;;4819775;29;21125;-88
2021/09/19 11:54:44;;;;;;;5.93;5.50;;;22.70;95.50;;;;;;4800991;29;20494;-88
2021/09/19 11:57:12;;;;;;;6.23;5.73;;;23.00;94.50;;;;;;4809473;29;20461;-87
2021/09/19 11:59:43;;;;;;;6.70;6.20;;;22.70;93.70;;;;;;4818824;29;20461;-91
2021/09/19 12:02:13;;;;;;;6.13;5.67;;;22.60;93.90;;;;;;4804992;29;20451;-88
2021/09/19 12:04:47;;;;;;;5.37;4.97;;;21.90;95.20;;;;;;4807490;29;20509;-88
2021/09/19 12:07:17;;;;;;;5.80;5.30;;;22.50;95.80;;;;;;4807013;29;20474;-89
2021/09/19 12:09:51;;;;;;;5.93;5.53;;;23.30;94.10;;;;;;4802279;29;20478;-89
2021/09/19 12:12:23;;;;;;;6.30;5.80;;;23.40;93.70;;;;;;4808654;29;20451;-89
2021/09/19 12:14:51;;;;;;;5.10;4.80;;;23.50;94.30;;;;;;4819974;29;20455;-89
2021/09/19 12:17:23;;;;;;;6.30;5.70;;;24.00;93.90;;;;;;4807653;29;20445;-88
2021/09/19 12:19:49;;;;;;;6.60;6.10;;;24.40;92.80;;;;;;4817855;29;20444;-90
2021/09/19 12:22:23;;;;;;;6.37;5.77;;;24.30;91.50;;;;;;4805818;29;20804;-88
2021/09/19 12:25:02;;;;;;;5.73;5.33;;;24.60;91.50;;;;;;4798803;29;20222;-90
2021/09/19 12:27:42;;;;;;;5.90;5.40;;;24.50;92.00;;;;;;4806221;29;20498;-90
2021/09/19 12:30:14;;;;;;;5.87;5.37;;;24.50;92.30;;;;;;4804236;29;20448;-90
2021/09/19 12:32:49;;;;;;;6.20;5.70;;;24.20;92.30;;;;;;4811597;29;20899;-90
2021/09/19 12:35:23;;;;;;;5.33;4.93;;;24.10;92.30;;;;;;4821251;29;20983;-89
2021/09/19 12:37:49;;;;;;;5.80;5.40;;;23.60;93.90;;;;;;4807688;29;20480;-89
2021/09/19 12:40:19;;;;;;;5.70;5.20;;;23.40;93.70;;;;;;4805543;29;20551;-90
2021/09/19 12:42:45;;;;;;;5.40;5.00;;;23.70;93.40;;;;;;4806664;29;20443;-89
2021/09/19 12:45:24;;;;;;;5.90;5.40;;;24.10;93.80;;;;;;4811396;29;20842;-89
2021/09/19 12:47:55;;;;;;;5.93;5.00;;;24.00;92.70;;;;;;4819897;29;20651;-89
2021/09/19 12:50:21;;;;;;;4.93;4.63;;;24.10;93.20;;;;;;4822849;29;20546;-89
2021/09/19 12:52:49;;;;;;;5.13;4.83;;;24.20;93.10;;;;;;4825705;29;20459;-89
2021/09/19 12:55:18;;;;;;;5.03;4.53;;;24.60;92.80;;;;;;4807104;29;20471;-89